Time;durP1;ratioP1;P1;durP2;ratioP2;P2;SDS_P1;SDS_P2;PMS_P1;PMS_P2;Temp;Humidity;BMP_temperature;BMP_pressure;BME280_temperature;BME280_humidity;BME280_pressure;Samples;Min_cycle;Max_cycle;Signal;HPM_P1;HPM_P2
2023/03/30 00:00:42;;;;;;;0.68;0.40;;;17.10;68.90;;;;;;5003199;28;20119;-80
2023/03/30 00:03:08;;;;;;;0.55;0.30;;;17.10;69.00;;;;;;5003166;28;20033;-80
2023/03/30 00:05:34;;;;;;;0.75;0.40;;;17.10;69.00;;;;;;5003030;28;20051;-79
2023/03/30 00:07:59;;;;;;;0.40;0.30;;;17.10;69.10;;;;;;5003555;28;20041;-80
2023/03/30 00:10:26;;;;;;;0.30;0.30;;;17.10;69.00;;;;;;5004982;28;20151;-80
2023/03/30 00:12:51;;;;;;;0.30;0.30;;;17.00;69.00;;;;;;5004615;28;20041;-81
2023/03/30 00:15:18;;;;;;;0.52;0.38;;;17.10;68.90;;;;;;5007703;28;20056;-80
2023/03/30 00:17:44;;;;;;;0.38;0.35;;;17.00;69.00;;;;;;5003286;28;20121;-80
2023/03/30 00:20:11;;;;;;;0.30;0.30;;;17.10;69.10;;;;;;5002662;28;20058;-79
2023/03/30 00:22:40;;;;;;;0.40;0.30;;;17.10;69.20;;;;;;5004545;28;20046;-79
2023/03/30 00:25:07;;;;;;;0.80;0.32;;;17.00;69.10;;;;;;5004203;28;20034;-79
2023/03/30 00:27:33;;;;;;;0.82;0.40;;;17.00;69.10;;;;;;5002884;28;20042;-79
2023/03/30 00:29:59;;;;;;;0.40;0.30;;;17.00;69.20;;;;;;5006145;28;20046;-80
2023/03/30 00:32:25;;;;;;;0.43;0.40;;;17.00;69.20;;;;;;5006236;28;20124;-79
2023/03/30 00:34:50;;;;;;;2.15;0.30;;;17.00;69.20;;;;;;5002341;28;20042;-80
2023/03/30 00:37:16;;;;;;;0.30;0.30;;;17.00;69.20;;;;;;5004438;28;20487;-80
2023/03/30 00:39:43;;;;;;;0.32;0.30;;;17.00;69.30;;;;;;5002089;28;20396;-80
2023/03/30 00:42:14;;;;;;;0.30;0.30;;;17.00;69.30;;;;;;5006119;28;20073;-80
2023/03/30 00:45:05;;;;;;;0.25;0.20;;;17.00;69.30;;;;;;4986553;28;20042;-79
2023/03/30 00:47:31;;;;;;;0.57;0.30;;;17.00;69.30;;;;;;5001811;28;20132;-80
2023/03/30 00:49:57;;;;;;;0.38;0.20;;;17.00;69.30;;;;;;5004554;28;20137;-80
2023/03/30 00:52:23;;;;;;;0.40;0.30;;;17.00;69.40;;;;;;5018342;28;20054;-80
2023/03/30 00:54:50;;;;;;;0.70;0.45;;;17.00;69.30;;;;;;5005455;28;20038;-80
2023/03/30 00:57:16;;;;;;;0.45;0.30;;;17.00;69.30;;;;;;5005525;28;20052;-80
2023/03/30 00:59:42;;;;;;;0.60;0.30;;;17.00;69.40;;;;;;5005798;28;20030;-79
2023/03/30 01:02:07;;;;;;;0.88;0.40;;;17.00;69.30;;;;;;4990831;28;20436;-80
2023/03/30 01:04:36;;;;;;;0.30;0.30;;;17.00;69.30;;;;;;5008908;28;20037;-80
2023/03/30 01:07:03;;;;;;;0.38;0.30;;;17.00;69.20;;;;;;5004257;28;20140;-80
2023/03/30 01:09:28;;;;;;;0.40;0.40;;;17.00;69.30;;;;;;4989259;28;20073;-80
2023/03/30 01:11:54;;;;;;;0.32;0.20;;;16.90;69.20;;;;;;4990255;28;20046;-80
2023/03/30 01:14:20;;;;;;;0.75;0.30;;;17.00;69.20;;;;;;5009224;28;20066;-80
2023/03/30 01:16:49;;;;;;;0.60;0.40;;;17.00;69.40;;;;;;5009132;28;20092;-80
2023/03/30 01:19:42;;;;;;;0.40;0.38;;;17.00;69.30;;;;;;5008206;28;20569;-80
2023/03/30 01:22:33;;;;;;;0.80;0.20;;;17.00;69.40;;;;;;5006589;28;20046;-80
2023/03/30 01:25:01;;;;;;;0.60;0.40;;;17.00;69.40;;;;;;5004981;28;20072;-80
2023/03/30 01:27:48;;;;;;;0.63;0.50;;;16.90;69.30;;;;;;5007813;28;20050;-79
2023/03/30 01:30:23;;;;;;;0.55;0.20;;;17.00;69.40;;;;;;5008937;28;20080;-80
2023/03/30 01:32:48;;;;;;;0.40;0.40;;;16.90;69.30;;;;;;5009089;28;20140;-79
2023/03/30 01:35:20;;;;;;;1.05;0.38;;;16.90;69.20;;;;;;5006897;28;20058;-80
2023/03/30 01:38:11;;;;;;;0.65;0.45;;;16.90;69.30;;;;;;5006226;28;20038;-80
2023/03/30 01:40:41;;;;;;;0.30;0.30;;;17.00;69.40;;;;;;5006520;28;20046;-79
2023/03/30 01:43:18;;;;;;;0.68;0.40;;;16.90;69.30;;;;;;5004830;28;20042;-79
2023/03/30 01:45:48;;;;;;;0.63;0.40;;;17.00;69.40;;;;;;4989270;28;20053;-79
2023/03/30 01:48:36;;;;;;;0.32;0.32;;;17.00;69.40;;;;;;5005789;28;20554;-79
2023/03/30 01:51:05;;;;;;;0.45;0.38;;;17.00;69.40;;;;;;5004111;28;20042;-80
2023/03/30 01:53:34;;;;;;;0.57;0.20;;;16.90;69.60;;;;;;4981177;28;20116;-80
2023/03/30 01:56:11;;;;;;;0.40;0.30;;;17.00;69.50;;;;;;5002383;28;20049;-80
2023/03/30 01:58:47;;;;;;;0.30;0.30;;;17.00;69.40;;;;;;4971190;28;20084;-80
2023/03/30 02:01:13;;;;;;;0.52;0.32;;;17.00;69.50;;;;;;4988855;28;20662;-80
2023/03/30 02:03:39;;;;;;;0.50;0.20;;;17.00;69.50;;;;;;4973115;28;20073;-80
2023/03/30 02:06:13;;;;;;;1.33;0.30;;;16.90;69.50;;;;;;4970743;28;20042;-80
2023/03/30 02:08:39;;;;;;;2.03;0.32;;;16.90;69.50;;;;;;4970354;28;20065;-80
2023/03/30 02:11:05;;;;;;;0.57;0.47;;;16.90;69.40;;;;;;4986242;28;20236;-80
2023/03/30 02:13:30;;;;;;;0.82;0.28;;;16.90;69.50;;;;;;5005458;28;20588;-79
2023/03/30 02:15:58;;;;;;;1.08;0.40;;;16.90;69.60;;;;;;4971872;28;20034;-80
2023/03/30 02:18:25;;;;;;;0.30;0.30;;;16.90;69.50;;;;;;4977774;28;20121;-80
2023/03/30 02:20:51;;;;;;;0.52;0.50;;;16.90;69.50;;;;;;4933434;28;20050;-80
2023/03/30 02:23:17;;;;;;;0.57;0.50;;;16.90;69.50;;;;;;4986662;28;20066;-80
2023/03/30 02:25:43;;;;;;;0.38;0.30;;;16.90;69.50;;;;;;4987225;28;20054;-79
2023/03/30 02:28:09;;;;;;;0.30;0.30;;;16.90;69.60;;;;;;5011057;28;20450;-79
2023/03/30 02:30:37;;;;;;;0.40;0.40;;;16.90;69.60;;;;;;5005410;28;20065;-79
2023/03/30 02:33:02;;;;;;;0.60;0.30;;;16.90;69.60;;;;;;5002733;28;20054;-79
2023/03/30 02:35:55;;;;;;;0.47;0.30;;;16.90;69.60;;;;;;5004707;28;20061;-79
2023/03/30 02:38:45;;;;;;;0.52;0.40;;;16.90;69.60;;;;;;5003450;28;20523;-80
2023/03/30 02:41:17;;;;;;;0.35;0.30;;;16.90;69.50;;;;;;5005379;28;20126;-80
2023/03/30 02:44:02;;;;;;;0.40;0.40;;;16.90;69.60;;;;;;5008482;28;20418;-80
2023/03/30 02:46:46;;;;;;;;;;;16.90;69.60;;;;;;5003437;28;20782;-79
2023/03/30 02:49:16;;;;;;;0.40;0.32;;;16.90;69.60;;;;;;5020965;28;19927;-79
2023/03/30 02:51:44;;;;;;;0.55;0.30;;;16.90;69.60;;;;;;5006102;28;20050;-80
2023/03/30 02:54:19;;;;;;;0.50;0.40;;;16.90;69.60;;;;;;5003615;28;20046;-80
2023/03/30 02:56:53;;;;;;;0.22;0.20;;;16.90;69.60;;;;;;5006863;28;20041;-79
2023/03/30 02:59:19;;;;;;;0.60;0.20;;;16.90;69.60;;;;;;4988638;28;20038;-79
2023/03/30 03:01:49;;;;;;;0.32;0.25;;;16.90;69.60;;;;;;5005729;28;20045;-79
2023/03/30 03:04:15;;;;;;;0.60;0.40;;;16.90;69.70;;;;;;4999974;28;20049;-80
2023/03/30 03:06:41;;;;;;;0.80;0.50;;;16.90;69.70;;;;;;4987808;28;20038;-79
2023/03/30 03:09:07;;;;;;;1.40;0.45;;;16.90;69.60;;;;;;4991268;28;20038;-80
2023/03/30 03:11:32;;;;;;;0.50;0.30;;;16.80;69.60;;;;;;5005258;28;20042;-79
2023/03/30 03:13:58;;;;;;;0.40;0.28;;;16.90;69.60;;;;;;5004938;28;20041;-79
2023/03/30 03:16:24;;;;;;;0.90;0.40;;;16.90;69.60;;;;;;5006005;28;20045;-79
2023/03/30 03:18:50;;;;;;;0.80;0.50;;;16.90;69.60;;;;;;5003804;28;20057;-80
2023/03/30 03:21:16;;;;;;;0.40;0.30;;;16.90;69.60;;;;;;5006185;28;20053;-79
2023/03/30 03:23:41;;;;;;;0.60;0.35;;;16.90;69.70;;;;;;5005655;28;20152;-80
2023/03/30 03:26:08;;;;;;;0.63;0.32;;;16.90;69.70;;;;;;5004805;28;20526;-79
2023/03/30 03:28:33;;;;;;;0.40;0.40;;;16.90;69.70;;;;;;5005269;28;20053;-79
2023/03/30 03:31:01;;;;;;;0.40;0.30;;;16.80;69.70;;;;;;5006521;28;20042;-79
2023/03/30 03:33:27;;;;;;;0.80;0.60;;;16.80;69.70;;;;;;5005320;28;20045;-79
2023/03/30 03:35:53;;;;;;;0.60;0.43;;;16.90;69.70;;;;;;5002226;28;20042;-79
2023/03/30 03:38:21;;;;;;;0.68;0.40;;;16.80;69.70;;;;;;5004354;28;20042;-79
2023/03/30 03:40:53;;;;;;;0.60;0.40;;;16.80;69.70;;;;;;5004874;28;20334;-79
2023/03/30 03:43:20;;;;;;;0.40;0.30;;;16.80;69.70;;;;;;5005124;28;20056;-80
2023/03/30 03:45:45;;;;;;;0.40;0.30;;;16.80;69.70;;;;;;5004321;28;20053;-79
2023/03/30 03:48:12;;;;;;;0.45;0.30;;;16.80;69.70;;;;;;5004057;28;20034;-80
2023/03/30 03:50:38;;;;;;;0.40;0.22;;;16.80;69.70;;;;;;5006015;28;20488;-79
2023/03/30 03:53:03;;;;;;;1.23;0.40;;;16.90;69.70;;;;;;5002327;28;20049;-79
2023/03/30 03:55:29;;;;;;;0.68;0.40;;;16.80;69.60;;;;;;5004861;28;20514;-79
2023/03/30 03:57:55;;;;;;;0.65;0.47;;;16.80;70.40;;;;;;5004281;28;20084;-80
2023/03/30 04:00:22;;;;;;;0.40;0.38;;;16.80;69.70;;;;;;5004275;28;20131;-79
2023/03/30 04:02:47;;;;;;;0.63;0.40;;;16.80;69.70;;;;;;5005600;28;20038;-79
2023/03/30 04:05:13;;;;;;;0.60;0.38;;;16.80;69.70;;;;;;5004915;28;20526;-79
2023/03/30 04:07:38;;;;;;;0.52;0.47;;;16.80;69.80;;;;;;5004294;28;20053;-79
2023/03/30 04:10:05;;;;;;;0.80;0.38;;;16.80;69.80;;;;;;5004340;28;20033;-80
2023/03/30 04:12:30;;;;;;;0.57;0.50;;;16.80;69.70;;;;;;5004078;28;20038;-79
2023/03/30 04:14:56;;;;;;;0.32;0.20;;;16.80;69.70;;;;;;5006720;28;20417;-79
2023/03/30 04:17:22;;;;;;;0.70;0.40;;;16.80;69.70;;;;;;5005070;28;20030;-80
2023/03/30 04:19:58;;;;;;;0.98;0.60;;;16.80;69.70;;;;;;5004604;28;20030;-79
2023/03/30 04:22:24;;;;;;;0.88;0.63;;;16.80;69.70;;;;;;5005098;28;20071;-79
2023/03/30 04:24:58;;;;;;;0.73;0.35;;;16.80;69.80;;;;;;4993504;28;20030;-79
2023/03/30 04:27:24;;;;;;;0.77;0.52;;;16.80;69.70;;;;;;5003737;28;20026;-79
2023/03/30 04:29:50;;;;;;;0.68;0.52;;;16.80;69.80;;;;;;5005105;28;20116;-79
2023/03/30 04:32:19;;;;;;;1.10;0.50;;;16.80;69.80;;;;;;5006437;28;20143;-79
2023/03/30 04:34:45;;;;;;;0.65;0.55;;;16.80;69.80;;;;;;5005432;28;20022;-79
2023/03/30 04:37:17;;;;;;;0.88;0.50;;;16.80;69.80;;;;;;5006786;28;20026;-80
2023/03/30 04:39:56;;;;;;;0.75;0.57;;;16.80;69.70;;;;;;5018524;28;20563;-79
2023/03/30 04:42:29;;;;;;;0.93;0.70;;;16.80;69.80;;;;;;5011941;28;20038;-79
2023/03/30 04:44:56;;;;;;;0.38;0.30;;;16.80;69.90;;;;;;5006103;28;20496;-80
2023/03/30 04:47:26;;;;;;;0.70;0.45;;;16.80;69.80;;;;;;4982962;28;20050;-81
2023/03/30 04:49:51;;;;;;;1.77;0.25;;;16.90;69.70;;;;;;4998111;28;20125;-79
2023/03/30 04:52:17;;;;;;;0.77;0.43;;;16.80;70.60;;;;;;5008900;28;20116;-78
2023/03/30 04:54:43;;;;;;;0.98;0.60;;;16.90;70.00;;;;;;5009204;28;20037;-78
2023/03/30 04:57:09;;;;;;;1.27;0.65;;;16.90;69.80;;;;;;5006581;28;20038;-79
2023/03/30 04:59:35;;;;;;;0.70;0.40;;;16.90;70.00;;;;;;4990538;28;20519;-78
2023/03/30 05:02:02;;;;;;;0.80;0.43;;;16.90;69.90;;;;;;5009629;28;20554;-78
2023/03/30 05:04:28;;;;;;;1.38;0.65;;;16.90;70.00;;;;;;5016772;28;20049;-77
2023/03/30 05:06:54;;;;;;;1.05;0.50;;;16.90;70.50;;;;;;4984846;28;20063;-78
2023/03/30 05:09:20;;;;;;;2.05;0.63;;;16.90;70.70;;;;;;5007621;28;20068;-77
2023/03/30 05:11:46;;;;;;;3.22;0.70;;;16.90;70.20;;;;;;5007651;28;20053;-77
2023/03/30 05:14:11;;;;;;;3.25;0.98;;;16.90;70.80;;;;;;5009386;28;20380;-77
2023/03/30 05:16:37;;;;;;;3.33;1.02;;;16.90;70.70;;;;;;5020567;28;20045;-78
2023/03/30 05:19:02;;;;;;;1.92;0.93;;;16.80;70.80;;;;;;5021481;28;20724;-78
2023/03/30 05:21:30;;;;;;;2.10;1.00;;;16.90;71.90;;;;;;4986712;28;20050;-78
2023/03/30 05:23:56;;;;;;;0.95;0.80;;;16.80;70.90;;;;;;5006262;28;20042;-79
2023/03/30 05:26:22;;;;;;;1.90;1.08;;;16.90;71.20;;;;;;4986632;28;20045;-78
2023/03/30 05:28:48;;;;;;;2.08;0.90;;;16.90;70.70;;;;;;5008402;28;20034;-79
2023/03/30 05:31:14;;;;;;;2.03;1.00;;;16.90;70.60;;;;;;4990263;28;20426;-80
2023/03/30 05:33:39;;;;;;;1.90;1.10;;;16.90;71.50;;;;;;5024374;28;21977;-78
2023/03/30 05:36:05;;;;;;;2.17;1.13;;;16.90;72.50;;;;;;5006152;28;20045;-78
2023/03/30 05:38:31;;;;;;;4.57;1.25;;;16.90;72.50;;;;;;5005604;28;20046;-78
2023/03/30 05:40:57;;;;;;;3.00;1.27;;;16.90;73.40;;;;;;5007314;28;20397;-78
2023/03/30 05:43:22;;;;;;;1.52;1.02;;;16.90;73.30;;;;;;5020267;28;20589;-78
2023/03/30 05:45:48;;;;;;;1.23;0.90;;;16.90;73.00;;;;;;4986698;28;20046;-78
2023/03/30 05:48:14;;;;;;;1.80;1.30;;;16.90;72.60;;;;;;4668022;28;9999601;-79
2023/03/30 05:50:40;;;;;;;1.23;0.95;;;16.90;72.90;;;;;;5006730;28;20076;-79
2023/03/30 05:53:05;;;;;;;1.65;1.13;;;16.90;72.60;;;;;;5000673;28;20200;-79
2023/03/30 05:55:31;;;;;;;2.00;1.00;;;16.90;73.20;;;;;;5004458;28;20049;-79
2023/03/30 05:57:56;;;;;;;1.45;0.80;;;16.90;72.80;;;;;;5003914;28;20049;-79
2023/03/30 06:00:22;;;;;;;2.42;1.08;;;16.90;72.60;;;;;;4999254;28;20135;-78
2023/03/30 06:02:48;;;;;;;1.67;0.75;;;16.90;72.30;;;;;;5005183;28;20041;-78
2023/03/30 06:05:14;;;;;;;2.05;1.02;;;16.90;72.30;;;;;;5004975;28;20054;-78
2023/03/30 06:07:39;;;;;;;1.77;1.08;;;16.90;72.40;;;;;;5014095;28;20525;-78
2023/03/30 06:10:06;;;;;;;1.77;0.88;;;17.00;73.10;;;;;;5013268;28;20049;-77
2023/03/30 06:12:32;;;;;;;2.15;1.00;;;17.00;73.50;;;;;;5020193;28;20074;-77
2023/03/30 06:14:58;;;;;;;1.27;0.90;;;17.00;73.40;;;;;;5003563;28;20072;-77
2023/03/30 06:17:24;;;;;;;1.13;0.93;;;17.00;73.70;;;;;;4986526;28;20046;-77
2023/03/30 06:19:50;;;;;;;2.10;1.10;;;17.00;74.40;;;;;;4989062;28;20033;-78
2023/03/30 06:22:15;;;;;;;1.60;1.15;;;17.00;74.40;;;;;;5002101;28;20119;-77
2023/03/30 06:24:41;;;;;;;2.20;1.10;;;17.10;74.80;;;;;;5001462;28;20049;-76
2023/03/30 06:27:07;;;;;;;1.52;1.00;;;17.10;74.10;;;;;;5002149;28;20046;-75
2023/03/30 06:29:32;;;;;;;0.82;0.60;;;17.00;73.60;;;;;;5006465;28;20046;-77
2023/03/30 06:31:58;;;;;;;1.30;0.90;;;17.10;73.40;;;;;;5007901;28;20112;-77
2023/03/30 06:34:23;;;;;;;1.88;1.38;;;17.10;73.20;;;;;;5017805;28;20146;-76
2023/03/30 06:36:49;;;;;;;6.15;1.50;;;17.10;73.50;;;;;;5000940;28;20117;-76
2023/03/30 06:39:16;;;;;;;1.75;0.90;;;17.10;73.80;;;;;;5005293;28;20057;-76
2023/03/30 06:41:41;;;;;;;1.17;0.70;;;17.10;73.70;;;;;;5005362;28;20054;-76
2023/03/30 06:44:09;;;;;;;3.25;1.17;;;17.10;73.60;;;;;;5006846;28;20057;-76
2023/03/30 06:46:34;;;;;;;1.20;1.10;;;17.10;73.70;;;;;;5010014;28;20069;-76
2023/03/30 06:49:00;;;;;;;2.90;1.02;;;17.10;73.70;;;;;;5021106;28;20132;-77
2023/03/30 06:51:26;;;;;;;2.22;1.00;;;17.10;73.70;;;;;;4988035;28;20070;-77
2023/03/30 06:53:52;;;;;;;1.23;1.00;;;17.10;74.00;;;;;;5009069;28;20145;-77
2023/03/30 06:56:17;;;;;;;3.15;0.93;;;17.10;75.00;;;;;;5006267;28;20574;-77
2023/03/30 06:58:44;;;;;;;1.92;1.02;;;17.10;73.90;;;;;;5006809;28;20053;-76
2023/03/30 07:01:11;;;;;;;3.80;0.85;;;17.10;73.80;;;;;;5006668;28;20427;-76
2023/03/30 07:03:37;;;;;;;2.80;0.93;;;17.10;73.70;;;;;;5007512;28;20058;-77
2023/03/30 07:06:03;;;;;;;1.70;0.70;;;17.10;73.60;;;;;;5006874;28;20099;-77
2023/03/30 07:08:28;;;;;;;2.88;0.82;;;17.10;73.70;;;;;;5005518;28;20057;-77
2023/03/30 07:10:54;;;;;;;2.28;0.90;;;17.10;73.80;;;;;;5001938;28;20424;-77
2023/03/30 07:13:20;;;;;;;1.35;0.77;;;17.10;73.60;;;;;;5007630;28;20499;-77
2023/03/30 07:15:45;;;;;;;1.30;0.80;;;17.10;73.90;;;;;;5005792;28;20132;-77
2023/03/30 07:18:11;;;;;;;3.78;0.82;;;17.00;73.90;;;;;;5006869;28;20033;-77
2023/03/30 07:20:37;;;;;;;2.58;1.20;;;17.10;74.10;;;;;;5005862;28;20108;-77
2023/03/30 07:23:02;;;;;;;1.38;1.13;;;17.10;74.40;;;;;;5006760;28;20054;-76
2023/03/30 07:25:28;;;;;;;1.75;1.20;;;17.00;74.70;;;;;;5014812;28;20056;-76
2023/03/30 07:27:54;;;;;;;1.20;0.90;;;17.00;74.80;;;;;;4999107;28;20411;-76
2023/03/30 07:30:21;;;;;;;3.60;1.00;;;17.10;74.70;;;;;;5019609;28;20523;-77
2023/03/30 07:32:48;;;;;;;1.95;1.10;;;17.10;74.80;;;;;;5009802;28;20121;-77
2023/03/30 07:35:14;;;;;;;2.72;0.85;;;17.10;74.80;;;;;;5008008;28;20042;-76
2023/03/30 07:37:40;;;;;;;4.28;1.50;;;17.10;75.00;;;;;;5013574;28;20553;-77
2023/03/30 07:40:07;;;;;;;2.28;0.93;;;17.10;74.80;;;;;;5005175;28;20434;-77
2023/03/30 07:42:33;;;;;;;1.73;0.80;;;17.10;74.70;;;;;;5004150;28;20136;-77
2023/03/30 07:44:59;;;;;;;2.00;0.90;;;17.10;74.60;;;;;;5007136;28;20500;-77
2023/03/30 07:47:25;;;;;;;2.05;0.85;;;17.10;74.70;;;;;;5003232;28;20040;-77
2023/03/30 07:49:51;;;;;;;1.15;0.80;;;17.10;74.60;;;;;;4989647;28;20423;-77
2023/03/30 07:52:17;;;;;;;1.73;1.10;;;17.20;74.60;;;;;;5004890;28;20033;-77
2023/03/30 07:54:43;;;;;;;1.23;0.88;;;17.10;74.40;;;;;;5006611;28;20038;-77
2023/03/30 07:57:10;;;;;;;2.15;1.10;;;17.10;74.40;;;;;;5007948;28;20142;-77
2023/03/30 07:59:36;;;;;;;2.30;0.98;;;17.20;74.40;;;;;;5004603;28;20113;-77
2023/03/30 08:02:01;;;;;;;3.40;1.20;;;17.10;74.30;;;;;;5003677;28;20137;-77
2023/03/30 08:04:27;;;;;;;2.03;0.65;;;17.10;74.30;;;;;;5004748;28;20411;-77
2023/03/30 08:06:52;;;;;;;1.40;1.00;;;17.10;74.30;;;;;;5008547;28;20486;-76
2023/03/30 08:09:18;;;;;;;2.67;0.98;;;17.10;74.30;;;;;;5002892;28;20041;-77
2023/03/30 08:11:44;;;;;;;1.63;1.10;;;17.10;74.40;;;;;;4989384;28;20038;-77
2023/03/30 08:14:10;;;;;;;2.15;1.00;;;17.10;74.50;;;;;;4990210;28;20050;-77
2023/03/30 08:16:35;;;;;;;2.10;0.77;;;17.10;74.50;;;;;;5004881;28;20057;-77
2023/03/30 08:19:01;;;;;;;1.40;0.88;;;17.10;74.60;;;;;;5013901;28;20032;-77
2023/03/30 08:21:26;;;;;;;3.10;0.82;;;17.20;74.60;;;;;;5001732;28;20054;-77
2023/03/30 08:23:54;;;;;;;1.60;1.08;;;17.20;74.50;;;;;;4994669;28;20038;-77
2023/03/30 08:26:20;;;;;;;2.15;1.10;;;17.20;74.60;;;;;;5004817;28;20034;-77
2023/03/30 08:28:46;;;;;;;2.25;1.15;;;17.20;74.50;;;;;;5005997;28;20060;-77
2023/03/30 08:31:11;;;;;;;2.17;1.15;;;17.20;74.40;;;;;;5004558;28;20522;-77
2023/03/30 08:33:37;;;;;;;1.70;0.90;;;17.20;74.40;;;;;;5005195;28;20434;-77
2023/03/30 08:36:03;;;;;;;1.50;1.08;;;17.20;74.50;;;;;;5005690;28;20046;-77
2023/03/30 08:38:28;;;;;;;2.22;1.15;;;17.10;74.50;;;;;;5004686;28;20097;-77
2023/03/30 08:40:54;;;;;;;0.70;0.70;;;17.20;74.50;;;;;;5004701;28;20124;-76
2023/03/30 08:43:52;;;;;;;1.38;0.75;;;17.20;74.40;;;;;;5005095;28;20042;-77
2023/03/30 08:46:17;;;;;;;1.20;0.88;;;17.20;74.40;;;;;;5004441;28;20033;-77
2023/03/30 08:48:43;;;;;;;2.85;0.90;;;17.20;74.20;;;;;;5004052;28;20447;-77
2023/03/30 08:51:21;;;;;;;1.77;1.20;;;17.10;74.10;;;;;;5006316;28;20030;-77
2023/03/30 08:53:51;;;;;;;1.08;0.90;;;17.10;73.80;;;;;;5003837;28;20550;-77
2023/03/30 08:56:22;;;;;;;1.30;0.95;;;17.10;73.90;;;;;;5005075;28;20033;-77
2023/03/30 08:58:54;;;;;;;1.52;1.08;;;17.10;73.70;;;;;;5003513;28;20042;-77
2023/03/30 09:01:22;;;;;;;2.05;0.75;;;17.10;73.80;;;;;;5004220;28;20044;-77
2023/03/30 09:04:06;;;;;;;0.90;0.68;;;17.10;73.70;;;;;;5001659;28;20038;-76
2023/03/30 09:07:02;;;;;;;1.08;0.70;;;17.20;73.70;;;;;;5004501;28;20045;-77
2023/03/30 09:09:30;;;;;;;1.88;0.85;;;17.20;73.70;;;;;;5002388;28;20052;-77
2023/03/30 09:12:15;;;;;;;0.98;0.82;;;17.10;73.80;;;;;;5001665;28;20109;-77
2023/03/30 09:14:49;;;;;;;1.60;1.10;;;17.20;73.70;;;;;;4993938;28;20080;-77
2023/03/30 09:17:22;;;;;;;;;;;17.10;73.70;;;;;;4975630;28;20022;-77
2023/03/30 09:20:17;;;;;;;1.83;1.05;;;17.10;73.40;;;;;;5001289;28;20349;-77
2023/03/30 09:22:43;;;;;;;;;;;17.10;73.30;;;;;;5012452;28;20076;-77
2023/03/30 09:25:18;;;;;;;1.27;0.75;;;17.10;73.10;;;;;;5008144;28;19960;-77
2023/03/30 09:27:49;;;;;;;1.40;1.00;;;17.10;73.20;;;;;;5007699;28;20068;-77
2023/03/30 09:30:20;;;;;;;1.77;0.80;;;17.10;73.10;;;;;;5008902;28;20527;-77
2023/03/30 09:32:53;;;;;;;2.30;1.00;;;17.20;73.20;;;;;;5009908;28;20089;-77
2023/03/30 09:35:23;;;;;;;1.77;0.93;;;17.20;73.20;;;;;;5010831;28;20115;-77
2023/03/30 09:37:49;;;;;;;1.83;0.90;;;17.10;73.20;;;;;;5006652;28;20212;-77
2023/03/30 09:40:40;;;;;;;1.85;1.08;;;17.20;73.30;;;;;;5006084;28;20048;-77
2023/03/30 09:43:16;;;;;;;2.25;0.93;;;17.10;73.20;;;;;;5003731;28;20042;-77
2023/03/30 09:45:42;;;;;;;1.23;1.05;;;17.20;73.10;;;;;;5003079;28;20038;-77
2023/03/30 09:48:08;;;;;;;1.45;0.85;;;17.20;73.40;;;;;;4990870;28;20045;-77
2023/03/30 09:50:43;;;;;;;2.05;0.90;;;17.10;73.40;;;;;;5010251;28;20050;-77
2023/03/30 09:53:25;;;;;;;0.93;0.60;;;17.20;73.30;;;;;;5008267;28;20061;-77
2023/03/30 09:56:02;;;;;;;1.50;0.80;;;17.20;73.00;;;;;;5006606;28;20128;-77
2023/03/30 09:58:30;;;;;;;2.17;0.95;;;17.20;72.80;;;;;;5009832;28;20103;-77
2023/03/30 10:01:13;;;;;;;2.35;1.02;;;17.20;72.90;;;;;;5017730;28;20436;-76
2023/03/30 10:03:39;;;;;;;1.25;1.15;;;17.20;72.80;;;;;;5002955;28;20050;-76
2023/03/30 10:06:06;;;;;;;1.05;0.60;;;17.30;72.70;;;;;;5008667;28;20042;-77
2023/03/30 10:08:39;;;;;;;1.48;1.15;;;17.30;72.60;;;;;;5004267;28;20046;-77
2023/03/30 10:11:05;;;;;;;2.28;0.90;;;17.30;72.30;;;;;;5001791;28;20117;-77
2023/03/30 10:13:41;;;;;;;2.13;0.82;;;17.30;72.10;;;;;;5014596;28;20189;-77
2023/03/30 10:16:31;;;;;;;2.88;1.10;;;17.30;72.10;;;;;;4989938;28;20029;-77
2023/03/30 10:19:01;;;;;;;1.00;0.90;;;17.30;72.30;;;;;;5006701;28;20042;-77
2023/03/30 10:21:31;;;;;;;1.50;0.98;;;17.30;72.10;;;;;;5002819;28;20108;-77
2023/03/30 10:24:22;;;;;;;1.25;0.98;;;17.30;72.10;;;;;;5001930;28;20358;-77
2023/03/30 10:26:50;;;;;;;1.83;0.85;;;17.30;72.10;;;;;;5006772;28;20415;-77
2023/03/30 10:29:17;;;;;;;1.58;0.80;;;17.40;72.20;;;;;;5007017;28;20138;-77
2023/03/30 10:31:45;;;;;;;1.10;0.93;;;17.40;72.10;;;;;;5007434;28;20565;-77
2023/03/30 10:34:16;;;;;;;1.02;0.80;;;17.40;72.20;;;;;;5007854;28;20585;-77
2023/03/30 10:36:41;;;;;;;1.38;0.80;;;17.40;72.10;;;;;;4989647;28;20030;-77
2023/03/30 10:39:28;;;;;;;1.45;1.02;;;17.40;72.10;;;;;;5006595;28;20406;-77
2023/03/30 10:41:54;;;;;;;1.20;0.95;;;17.40;72.10;;;;;;5000448;28;20057;-77
2023/03/30 10:44:31;;;;;;;2.17;0.80;;;17.40;72.10;;;;;;5007768;28;20041;-77
2023/03/30 10:47:35;;;;;;;1.10;0.65;;;17.40;72.00;;;;;;5007574;28;20215;-77
2023/03/30 10:50:14;;;;;;;1.02;0.80;;;17.40;72.00;;;;;;5021300;28;20057;-78
2023/03/30 10:52:52;;;;;;;1.20;0.80;;;17.50;72.00;;;;;;5004138;28;20127;-78
2023/03/30 10:55:42;;;;;;;1.17;0.98;;;17.50;72.10;;;;;;5008509;28;20120;-78
2023/03/30 10:58:38;;;;;;;1.30;0.90;;;17.50;72.00;;;;;;4989513;28;20049;-78
2023/03/30 11:01:21;;;;;;;2.78;0.90;;;17.50;72.10;;;;;;5005187;28;20050;-78
2023/03/30 11:03:50;;;;;;;1.23;0.70;;;17.50;72.00;;;;;;5004736;28;20527;-77
2023/03/30 11:06:26;;;;;;;0.95;0.70;;;17.50;71.70;;;;;;4988819;28;20054;-77
2023/03/30 11:08:52;;;;;;;1.40;0.68;;;17.50;71.80;;;;;;5005800;28;20520;-78
2023/03/30 11:11:22;;;;;;;0.68;0.68;;;17.50;71.70;;;;;;5006155;28;20052;-78
2023/03/30 11:13:53;;;;;;;1.75;0.80;;;17.50;71.70;;;;;;5006169;28;20523;-78
2023/03/30 11:16:44;;;;;;;1.35;0.90;;;17.50;72.00;;;;;;4988260;28;20139;-78
2023/03/30 11:19:21;;;;;;;1.20;0.90;;;17.50;71.90;;;;;;5005811;28;20045;-78
2023/03/30 11:21:55;;;;;;;0.80;0.70;;;17.50;72.10;;;;;;4984521;28;20085;-78
2023/03/30 11:24:25;;;;;;;0.80;0.70;;;17.50;71.90;;;;;;5005427;28;20052;-78
2023/03/30 11:27:29;;;;;;;0.90;0.80;;;17.50;71.80;;;;;;5002310;28;20046;-78
2023/03/30 11:30:13;;;;;;;1.02;0.82;;;17.50;71.70;;;;;;5019994;28;20049;-78
2023/03/30 11:33:03;;;;;;;1.63;0.82;;;17.50;71.70;;;;;;4998066;28;20119;-78
2023/03/30 11:35:44;;;;;;;1.25;0.80;;;17.50;71.90;;;;;;5005076;28;20052;-78
2023/03/30 11:38:20;;;;;;;1.17;0.93;;;17.50;71.80;;;;;;5004445;28;20108;-78
2023/03/30 11:41:12;;;;;;;2.75;0.90;;;17.50;71.80;;;;;;5004417;28;20136;-78
2023/03/30 11:43:38;;;;;;;1.70;1.20;;;17.50;71.70;;;;;;5005366;28;20037;-78
2023/03/30 11:46:15;;;;;;;1.52;0.70;;;17.50;71.70;;;;;;5004840;28;20054;-78
2023/03/30 11:49:18;;;;;;;1.27;0.80;;;17.50;71.70;;;;;;5001232;28;20034;-78
2023/03/30 11:51:51;;;;;;;0.85;0.70;;;17.50;71.70;;;;;;5004595;28;20045;-78
2023/03/30 11:54:38;;;;;;;1.30;0.70;;;17.50;72.40;;;;;;4983993;28;20046;-78
2023/03/30 11:57:22;;;;;;;1.08;0.70;;;17.50;71.80;;;;;;5003362;28;20042;-78
2023/03/30 12:00:07;;;;;;;1.13;0.77;;;17.40;71.80;;;;;;5005200;28;20054;-78
2023/03/30 12:02:54;;;;;;;0.98;0.50;;;17.50;71.60;;;;;;5004706;28;20053;-78
2023/03/30 12:05:39;;;;;;;0.90;0.60;;;17.50;71.30;;;;;;4989793;28;20050;-78
2023/03/30 12:08:25;;;;;;;0.80;0.70;;;17.50;71.40;;;;;;5004367;28;20103;-78
2023/03/30 12:10:55;;;;;;;1.13;0.68;;;17.50;71.40;;;;;;5001774;28;20092;-78
2023/03/30 12:13:21;;;;;;;1.10;0.85;;;17.50;71.40;;;;;;5006683;28;20053;-78
2023/03/30 12:15:50;;;;;;;0.98;0.45;;;17.60;71.50;;;;;;4988647;28;20034;-78
2023/03/30 12:18:38;;;;;;;1.52;0.80;;;17.60;71.10;;;;;;5005039;28;20046;-78
2023/03/30 12:21:09;;;;;;;0.50;0.43;;;17.60;71.20;;;;;;5006646;28;20128;-78
2023/03/30 12:23:54;;;;;;;1.10;0.70;;;17.60;71.30;;;;;;5003600;28;20038;-78
2023/03/30 12:26:27;;;;;;;1.20;0.68;;;17.60;71.10;;;;;;5003188;28;20049;-78
2023/03/30 12:28:53;;;;;;;0.80;0.70;;;17.60;71.10;;;;;;5000640;28;20046;-78
2023/03/30 12:31:19;;;;;;;1.10;0.60;;;17.60;71.30;;;;;;5005943;28;20042;-78
2023/03/30 12:33:49;;;;;;;1.13;0.70;;;17.60;71.10;;;;;;5003493;28;20129;-78
2023/03/30 12:36:33;;;;;;;1.10;0.90;;;17.60;71.10;;;;;;5007891;28;20045;-78
2023/03/30 12:39:01;;;;;;;1.20;1.10;;;17.60;71.10;;;;;;5003980;28;20519;-78
2023/03/30 12:41:28;;;;;;;1.33;0.63;;;17.60;71.20;;;;;;5004269;28;20556;-78
2023/03/30 12:44:21;;;;;;;1.30;0.82;;;17.60;71.20;;;;;;5004056;28;20049;-78
2023/03/30 12:47:02;;;;;;;1.40;1.13;;;17.60;71.10;;;;;;5005524;28;20046;-78
2023/03/30 12:50:00;;;;;;;0.75;0.45;;;17.60;71.30;;;;;;5004389;28;20058;-78
2023/03/30 12:52:30;;;;;;;0.80;0.45;;;17.60;71.30;;;;;;4971570;28;20038;-79
2023/03/30 12:54:59;;;;;;;0.80;0.60;;;17.60;71.10;;;;;;5003036;28;20054;-78
2023/03/30 12:57:37;;;;;;;1.00;0.70;;;17.60;71.10;;;;;;5024564;28;20578;-78
2023/03/30 13:00:27;;;;;;;0.80;0.70;;;17.60;70.90;;;;;;5007417;28;20065;-78
2023/03/30 13:03:00;;;;;;;0.95;0.77;;;17.60;71.00;;;;;;5008173;28;20053;-78
2023/03/30 13:05:31;;;;;;;1.00;0.60;;;17.60;71.40;;;;;;5009494;28;20113;-78